createdAt,value
2023-10-26T00:02:19.680Z,0.20
2023-10-26T00:04:49.176Z,0.20
2023-10-26T00:07:18.668Z,0.20
2023-10-26T00:09:48.158Z,0.20
2023-10-26T00:12:21.176Z,0.20
2023-10-26T00:14:50.692Z,0.20
2023-10-26T00:17:20.215Z,0.20
2023-10-26T00:19:49.747Z,0.20
2023-10-26T00:22:19.258Z,0.20
2023-10-26T00:24:48.728Z,0.20
2023-10-26T00:27:19.862Z,0.20
2023-10-26T00:29:49.425Z,0.20
2023-10-26T00:32:18.962Z,0.20
2023-10-26T00:34:48.598Z,0.20
2023-10-26T00:37:25.606Z,0.20
2023-10-26T00:39:55.260Z,0.20
2023-10-26T00:42:26.202Z,0.20
2023-10-26T00:44:58.137Z,0.20
2023-10-26T00:47:28.346Z,0.20
2023-10-26T00:49:57.832Z,0.20
2023-10-26T00:52:27.437Z,0.20
2023-10-26T00:54:58.535Z,0.20
2023-10-26T00:57:29.773Z,0.20
2023-10-26T01:00:00.517Z,0.20
2023-10-26T01:02:30.187Z,0.20
2023-10-26T01:04:59.700Z,0.20
2023-10-26T01:07:29.416Z,0.20
2023-10-26T01:09:58.920Z,0.20
2023-10-26T01:12:30.501Z,0.20
2023-10-26T01:15:00.286Z,0.20
2023-10-26T01:17:29.865Z,0.20
2023-10-26T01:19:59.535Z,0.20
2023-10-26T01:22:32.996Z,0.20
2023-10-26T01:25:03.201Z,0.20
2023-10-26T01:27:33.240Z,0.20
2023-10-26T01:30:02.756Z,0.20
2023-10-26T01:32:32.371Z,0.20
2023-10-26T01:35:01.961Z,0.20
2023-10-26T01:37:32.823Z,0.20
2023-10-26T01:40:02.520Z,0.20
2023-10-26T01:42:32.694Z,0.20
2023-10-26T01:45:02.272Z,0.20
2023-10-26T01:47:32.699Z,0.20
2023-10-26T01:50:02.803Z,0.10
2023-10-26T01:52:33.872Z,0.20
2023-10-26T01:55:04.474Z,0.20
2023-10-26T01:57:33.970Z,0.17
2023-10-26T02:00:04.482Z,0.20
2023-10-26T02:02:42.566Z,0.20
2023-10-26T02:05:12.312Z,0.20
2023-10-26T02:07:43.925Z,0.20
2023-10-26T02:10:16.562Z,0.20
2023-10-26T02:12:46.046Z,0.20
2023-10-26T02:15:15.653Z,0.20
2023-10-26T02:17:45.527Z,0.20
2023-10-26T02:20:15.032Z,0.20
2023-10-26T02:22:45.880Z,0.20
2023-10-26T02:25:15.480Z,0.20
2023-10-26T02:27:45.110Z,0.20
2023-10-26T02:30:15.246Z,0.20
2023-10-26T02:32:46.115Z,0.20
2023-10-26T02:35:16.327Z,0.20
2023-10-26T02:37:47.202Z,0.20
2023-10-26T02:40:17.638Z,0.20
2023-10-26T02:42:47.146Z,0.20
2023-10-26T02:45:17.215Z,0.20
2023-10-26T02:47:46.911Z,0.20
2023-10-26T02:50:16.523Z,0.20
2023-10-26T02:52:47.442Z,0.20
2023-10-26T02:55:17.071Z,0.20
2023-10-26T02:57:47.045Z,0.20
2023-10-26T03:00:17.624Z,0.20
2023-10-26T03:02:47.516Z,0.20
2023-10-26T03:05:17.567Z,0.17
2023-10-26T03:07:49.162Z,0.20
2023-10-26T03:10:18.761Z,0.10
2023-10-26T03:12:49.867Z,0.20
2023-10-26T03:15:19.557Z,0.20
2023-10-26T03:17:49.104Z,0.20
2023-10-26T03:20:18.790Z,0.20
2023-10-26T03:22:49.750Z,0.20
2023-10-26T03:25:19.690Z,0.20
2023-10-26T03:27:49.213Z,0.20
2023-10-26T03:30:19.377Z,0.20
2023-10-26T03:32:50.290Z,0.20
2023-10-26T03:35:19.946Z,0.20
2023-10-26T03:37:50.877Z,0.20
2023-10-26T03:40:20.450Z,0.20
2023-10-26T03:42:51.177Z,0.20
2023-10-26T03:45:20.828Z,0.20
2023-10-26T03:47:50.418Z,0.20
2023-10-26T03:50:20.084Z,0.20
2023-10-26T03:52:51.044Z,0.20
2023-10-26T03:55:20.997Z,0.20
2023-10-26T03:57:50.677Z,0.20
2023-10-26T04:00:20.337Z,0.17
2023-10-26T04:02:49.972Z,0.20
2023-10-26T04:05:19.595Z,0.20
2023-10-26T04:07:49.166Z,0.20
2023-10-26T04:10:20.167Z,0.20
2023-10-26T04:12:49.751Z,0.20
2023-10-26T04:15:19.342Z,0.20
2023-10-26T04:17:49.055Z,0.20
2023-10-26T04:20:19.038Z,0.20
2023-10-26T04:22:49.105Z,0.20
2023-10-26T04:25:21.389Z,0.20
2023-10-26T04:27:50.957Z,0.20
2023-10-26T04:30:20.830Z,0.20
2023-10-26T04:32:51.332Z,0.20
2023-10-26T04:35:21.367Z,0.20
2023-10-26T04:37:50.938Z,0.20
2023-10-26T04:40:22.705Z,0.20
2023-10-26T04:42:52.314Z,0.20
2023-10-26T04:45:21.967Z,0.20
2023-10-26T04:47:51.536Z,0.20
2023-10-26T04:50:21.067Z,0.20
2023-10-26T04:52:51.188Z,0.20
2023-10-26T04:55:22.312Z,0.20
2023-10-26T04:57:52.225Z,0.20
2023-10-26T05:00:22.034Z,0.30
2023-10-26T05:02:51.972Z,0.20
2023-10-26T05:05:21.671Z,0.20
2023-10-26T05:07:51.250Z,0.20
2023-10-26T05:10:22.438Z,0.20
2023-10-26T05:12:51.974Z,0.20
2023-10-26T05:15:21.542Z,0.20
2023-10-26T05:17:51.062Z,0.20
2023-10-26T05:20:20.728Z,0.20
2023-10-26T05:22:50.455Z,0.20
2023-10-26T05:25:20.015Z,0.20
2023-10-26T05:27:51.883Z,0.20
2023-10-26T05:30:21.682Z,0.20
2023-10-26T05:32:51.479Z,0.20
2023-10-26T05:35:21.145Z,0.20
2023-10-26T05:37:50.613Z,0.20
2023-10-26T05:40:20.179Z,0.20
2023-10-26T05:42:51.034Z,0.20
2023-10-26T05:45:20.610Z,0.20
2023-10-26T05:47:53.914Z,0.20
2023-10-26T05:50:23.639Z,0.20
2023-10-26T05:52:53.101Z,0.20
2023-10-26T05:55:24.717Z,0.20
2023-10-26T05:57:55.564Z,0.20
2023-10-26T06:00:27.101Z,0.20
2023-10-26T06:02:56.751Z,0.20
2023-10-26T06:05:26.352Z,0.20
2023-10-26T06:07:55.858Z,0.20
2023-10-26T06:10:25.372Z,0.20
2023-10-26T06:12:56.247Z,0.20
2023-10-26T06:15:25.842Z,0.20
2023-10-26T06:17:56.941Z,0.20
2023-10-26T06:20:29.112Z,0.20
2023-10-26T06:22:59.042Z,0.20
2023-10-26T06:25:30.099Z,0.17
2023-10-26T06:28:00.989Z,0.20
2023-10-26T06:30:30.644Z,0.20
2023-10-26T06:33:02.054Z,0.27
2023-10-26T06:35:31.820Z,0.20
2023-10-26T06:38:01.324Z,0.20
2023-10-26T06:40:30.767Z,0.20
2023-10-26T06:43:02.493Z,0.20
2023-10-26T06:45:32.001Z,0.20
2023-10-26T06:48:01.552Z,0.20
2023-10-26T06:50:31.143Z,0.23
2023-10-26T06:53:00.623Z,0.20
2023-10-26T06:55:34.657Z,0.20
2023-10-26T06:58:05.634Z,0.20
2023-10-26T07:00:37.939Z,0.20
2023-10-26T07:03:08.280Z,0.20
2023-10-26T07:05:37.740Z,0.20
2023-10-26T07:08:07.206Z,0.20
2023-10-26T07:10:36.649Z,0.20
2023-10-26T07:13:09.063Z,0.20
2023-10-26T07:15:38.594Z,0.20
2023-10-26T07:18:08.294Z,0.20
2023-10-26T07:20:39.475Z,0.20
2023-10-26T07:23:08.974Z,0.20
2023-10-26T07:25:38.459Z,0.20
2023-10-26T07:28:09.391Z,0.20
2023-10-26T07:30:41.789Z,0.20
2023-10-26T07:33:11.534Z,0.20
2023-10-26T07:35:42.615Z,0.20
2023-10-26T07:38:35.375Z,0.20
2023-10-26T07:41:04.397Z,0.20
2023-10-26T07:43:35.304Z,0.20
2023-10-26T07:46:04.888Z,0.20
2023-10-26T07:48:37.035Z,0.20
2023-10-26T07:51:06.870Z,0.20
2023-10-26T07:53:36.345Z,0.20
2023-10-26T07:56:06.091Z,0.20
2023-10-26T07:58:36.973Z,0.20
2023-10-26T08:01:11.142Z,0.20
2023-10-26T08:03:40.791Z,0.20
2023-10-26T08:06:11.457Z,0.20
2023-10-26T08:08:40.945Z,0.20
2023-10-26T08:11:11.450Z,0.20
2023-10-26T08:13:42.550Z,0.20
2023-10-26T08:16:40.607Z,0.20
2023-10-26T08:19:02.073Z,0.20
2023-10-26T08:21:31.613Z,0.20
2023-10-26T08:24:01.086Z,0.20
2023-10-26T08:26:30.574Z,0.20
2023-10-26T08:29:13.669Z,0.20
2023-10-26T08:31:45.230Z,0.20
2023-10-26T08:34:15.013Z,0.20
2023-10-26T08:36:51.174Z,0.20
2023-10-26T08:39:32.830Z,0.20
2023-10-26T08:42:03.435Z,0.20
2023-10-26T08:44:34.551Z,0.20
2023-10-26T08:47:05.436Z,0.20
2023-10-26T08:49:36.103Z,0.20
2023-10-26T08:52:06.135Z,0.20
2023-10-26T08:54:35.622Z,0.20
2023-10-26T08:57:09.666Z,0.20
2023-10-26T08:59:40.547Z,0.20
2023-10-26T09:02:10.136Z,0.20
2023-10-26T09:04:39.764Z,0.20
2023-10-26T09:07:10.591Z,0.20
2023-10-26T09:09:46.185Z,0.20
2023-10-26T09:12:16.529Z,0.20
2023-10-26T09:14:59.844Z,0.30
2023-10-26T09:17:30.106Z,0.20
2023-10-26T09:19:59.820Z,0.20
2023-10-26T09:22:39.171Z,0.20
2023-10-26T09:25:09.621Z,0.20
2023-10-26T09:27:39.469Z,0.20
2023-10-26T09:30:24.347Z,0.20
2023-10-26T09:32:54.239Z,0.20
2023-10-26T09:35:29.862Z,0.20
2023-10-26T09:38:00.083Z,0.20
2023-10-26T09:40:30.357Z,0.20
2023-10-26T09:42:59.965Z,0.20
2023-10-26T09:45:30.877Z,0.20
2023-10-26T09:48:01.235Z,0.20
2023-10-26T09:50:31.941Z,0.20
2023-10-26T09:53:01.692Z,0.20
2023-10-26T09:55:31.366Z,0.23
2023-10-26T09:58:04.705Z,0.20
2023-10-26T10:00:36.703Z,0.30
2023-10-26T10:03:12.827Z,0.20
2023-10-26T10:05:43.258Z,0.20
2023-10-26T10:08:13.070Z,0.20
2023-10-26T10:10:57.428Z,0.20
2023-10-26T10:13:39.567Z,0.20
2023-10-26T10:16:30.739Z,0.20
2023-10-26T10:19:18.319Z,0.20
2023-10-26T10:21:49.220Z,0.20
2023-10-26T10:24:37.469Z,0.20
2023-10-26T10:27:10.246Z,0.20
2023-10-26T10:29:39.750Z,0.20
2023-10-26T10:32:11.643Z,0.20
2023-10-26T10:34:45.858Z,0.20
2023-10-26T10:37:18.346Z,0.20
2023-10-26T10:40:06.575Z,0.20
2023-10-26T10:42:36.725Z,0.20
2023-10-26T10:45:06.475Z,0.20
2023-10-26T10:47:37.318Z,0.20
2023-10-26T10:50:19.737Z,0.20
2023-10-26T10:52:49.847Z,0.20
2023-10-26T10:55:22.802Z,0.20
2023-10-26T10:57:56.484Z,0.20
2023-10-26T11:00:26.840Z,0.20
2023-10-26T11:03:00.555Z,0.20
2023-10-26T11:05:36.108Z,0.30
2023-10-26T11:08:05.772Z,0.20
2023-10-26T11:10:35.284Z,0.20
2023-10-26T11:13:05.110Z,0.20
2023-10-26T11:15:34.885Z,0.20
2023-10-26T11:18:06.944Z,0.20
2023-10-26T11:20:38.011Z,0.20
2023-10-26T11:23:07.620Z,0.20
2023-10-26T11:25:37.323Z,0.20
2023-10-26T11:28:06.999Z,0.20
2023-10-26T11:30:47.840Z,0.20
2023-10-26T11:33:34.481Z,0.20
2023-10-26T11:36:04.140Z,0.20
2023-10-26T11:38:33.690Z,0.20
2023-10-26T11:41:03.186Z,0.20
2023-10-26T11:43:33.376Z,0.20
2023-10-26T11:46:04.622Z,0.20
2023-10-26T11:48:36.218Z,0.20
2023-10-26T11:51:07.740Z,0.20
2023-10-26T11:53:39.966Z,0.20
2023-10-26T11:56:09.465Z,0.30
2023-10-26T11:58:39.519Z,0.20
2023-10-26T12:01:09.116Z,0.30
2023-10-26T12:03:45.040Z,0.20
2023-10-26T12:06:14.680Z,0.20
2023-10-26T12:08:44.573Z,0.20
2023-10-26T12:11:14.650Z,0.20
2023-10-26T12:13:44.177Z,0.20
2023-10-26T12:16:13.710Z,0.20
2023-10-26T12:18:44.612Z,0.20
2023-10-26T12:21:14.111Z,0.20
2023-10-26T12:23:43.629Z,0.20
2023-10-26T12:26:13.221Z,0.20
2023-10-26T12:28:42.736Z,0.20
2023-10-26T12:31:12.385Z,0.20
2023-10-26T12:33:42.640Z,0.20
2023-10-26T12:36:13.552Z,0.20
2023-10-26T12:38:43.034Z,0.20
2023-10-26T12:41:13.147Z,0.23
2023-10-26T12:43:42.864Z,0.20
2023-10-26T12:46:12.435Z,0.20
2023-10-26T12:48:42.533Z,0.20
2023-10-26T12:51:13.856Z,0.20
2023-10-26T12:53:43.389Z,0.20
2023-10-26T12:56:12.968Z,0.20
2023-10-26T12:58:42.456Z,0.13
2023-10-26T13:01:12.516Z,0.20
2023-10-26T13:03:42.475Z,0.30
2023-10-26T13:06:12.000Z,0.20
2023-10-26T13:08:43.241Z,0.20
2023-10-26T13:11:13.750Z,0.20
2023-10-26T13:13:43.348Z,0.20
2023-10-26T13:16:12.905Z,0.20
2023-10-26T13:18:45.702Z,0.20
2023-10-26T13:21:16.983Z,0.30
2023-10-26T13:23:48.146Z,0.20
2023-10-26T13:26:17.656Z,0.20
2023-10-26T13:28:47.169Z,0.30
2023-10-26T13:31:16.728Z,0.20
2023-10-26T13:33:47.068Z,0.27
2023-10-26T13:36:16.641Z,0.30
2023-10-26T13:42:51.680Z,0.30
2023-10-26T13:45:24.110Z,0.40
2023-10-26T13:47:54.947Z,0.30
2023-10-26T13:50:24.498Z,0.30
2023-10-26T13:52:54.098Z,0.40
2023-10-26T13:55:24.186Z,0.30
2023-10-26T13:57:53.743Z,0.30
2023-10-26T14:00:25.705Z,0.40
2023-10-26T14:02:55.267Z,0.30
2023-10-26T14:05:30.578Z,0.37
2023-10-26T14:08:00.697Z,0.30
2023-10-26T14:10:30.321Z,0.30
2023-10-26T14:13:00.107Z,0.30
2023-10-26T14:15:31.109Z,0.30
2023-10-26T14:18:00.675Z,0.30
2023-10-26T14:20:30.253Z,0.30
2023-10-26T14:23:01.781Z,0.30
2023-10-26T14:25:32.385Z,0.30
2023-10-26T14:28:02.477Z,0.30
2023-10-26T14:30:35.624Z,0.30
2023-10-26T14:33:05.274Z,0.30
2023-10-26T14:35:34.785Z,0.30
2023-10-26T14:38:05.030Z,0.30
2023-10-26T14:40:34.540Z,0.30
2023-10-26T14:43:04.272Z,0.30
2023-10-26T14:45:36.849Z,0.30
2023-10-26T14:48:06.922Z,0.27
2023-10-26T14:50:36.411Z,0.30
2023-10-26T14:53:05.926Z,0.30
2023-10-26T14:55:35.398Z,0.30
2023-10-26T14:58:05.062Z,0.20
2023-10-26T15:00:34.607Z,0.30
2023-10-26T15:03:05.632Z,0.20
2023-10-26T15:05:38.494Z,0.30
2023-10-26T15:08:11.235Z,0.20
2023-10-26T15:10:47.091Z,0.30
2023-10-26T15:13:20.220Z,0.30
2023-10-26T15:15:59.460Z,0.30
2023-10-26T15:18:30.650Z,0.20
2023-10-26T15:21:05.663Z,0.20
2023-10-26T15:23:35.393Z,0.30
2023-10-26T15:26:05.530Z,0.30
2023-10-26T15:28:35.520Z,0.30
2023-10-26T15:31:05.786Z,0.30
2023-10-26T15:33:36.756Z,0.23
2023-10-26T15:36:06.632Z,0.30
2023-10-26T15:38:42.045Z,0.30
2023-10-26T15:41:12.457Z,0.20
2023-10-26T15:43:42.319Z,0.20
2023-10-26T15:46:12.081Z,0.20
2023-10-26T15:49:34.141Z,0.20
2023-10-26T15:51:32.630Z,0.20
2023-10-26T15:54:03.092Z,0.30
2023-10-26T15:56:32.686Z,0.20
2023-10-26T15:59:02.497Z,0.23
2023-10-26T16:01:32.408Z,0.30
2023-10-26T16:04:03.350Z,0.20
2023-10-26T16:06:32.871Z,0.20
2023-10-26T16:09:02.688Z,0.20
2023-10-26T16:11:32.166Z,0.20
2023-10-26T16:14:01.888Z,0.20
2023-10-26T16:16:31.508Z,0.20
2023-10-26T16:19:01.187Z,0.20
2023-10-26T16:21:32.126Z,0.30
2023-10-26T16:24:01.633Z,0.20
2023-10-26T16:26:31.127Z,0.20
2023-10-26T16:29:00.678Z,0.30
2023-10-26T16:31:30.207Z,0.20
2023-10-26T16:33:59.818Z,0.30
2023-10-26T16:36:29.833Z,0.30
2023-10-26T16:39:01.277Z,0.30
2023-10-26T16:41:31.116Z,0.20
2023-10-26T16:44:01.043Z,0.20
2023-10-26T16:46:30.585Z,0.20
2023-10-26T16:49:00.259Z,0.20
2023-10-26T16:51:30.400Z,0.20
2023-10-26T16:54:01.303Z,0.20
2023-10-26T16:56:30.895Z,0.20
2023-10-26T16:59:00.435Z,0.20
2023-10-26T17:01:29.998Z,0.30
2023-10-26T17:03:59.555Z,0.20
2023-10-26T17:06:29.036Z,0.30
2023-10-26T17:08:58.526Z,0.30
2023-10-26T17:11:29.395Z,0.30
2023-10-26T17:13:58.907Z,0.20
2023-10-26T17:16:28.801Z,0.20
2023-10-26T17:18:58.364Z,0.20
2023-10-26T17:21:27.842Z,0.20
2023-10-26T17:23:57.650Z,0.20
2023-10-26T17:26:27.295Z,0.20
2023-10-26T17:28:58.185Z,0.20
2023-10-26T17:31:27.760Z,0.20
2023-10-26T17:33:57.317Z,0.30
2023-10-26T17:36:27.250Z,0.20
2023-10-26T17:38:56.765Z,0.20
2023-10-26T17:41:26.216Z,0.30
2023-10-26T17:43:55.846Z,0.30
2023-10-26T17:46:26.927Z,0.30
2023-10-26T17:48:57.044Z,0.20
2023-10-26T17:51:26.642Z,0.20
2023-10-26T17:53:56.295Z,0.20
2023-10-26T17:56:25.872Z,0.30
2023-10-26T17:58:55.553Z,0.20
2023-10-26T18:01:25.220Z,0.30
2023-10-26T18:03:56.239Z,0.20
2023-10-26T18:06:25.797Z,0.20
2023-10-26T18:08:55.302Z,0.30
2023-10-26T18:11:25.317Z,0.30
2023-10-26T18:13:54.812Z,0.20
2023-10-26T18:16:24.420Z,0.30
2023-10-26T18:18:57.377Z,0.30
2023-10-26T18:21:26.905Z,0.20
2023-10-26T18:23:56.388Z,0.30
2023-10-26T18:26:25.864Z,0.30
2023-10-26T18:28:55.346Z,0.30
2023-10-26T18:31:24.975Z,0.30
2023-10-26T18:33:56.568Z,0.30
2023-10-26T18:36:26.972Z,0.30
2023-10-26T18:38:56.434Z,0.30
2023-10-26T18:41:27.031Z,0.20
2023-10-26T18:43:56.710Z,0.30
2023-10-26T18:46:26.607Z,0.30
2023-10-26T18:48:57.572Z,0.20
2023-10-26T18:51:27.238Z,0.23
2023-10-26T18:53:56.824Z,0.20
2023-10-26T18:56:26.427Z,0.20
2023-10-26T18:58:57.505Z,0.30
2023-10-26T19:01:27.902Z,0.20
2023-10-26T19:04:02.759Z,0.30
2023-10-26T19:06:32.946Z,0.30
2023-10-26T19:09:03.768Z,0.20
2023-10-26T19:11:33.355Z,0.30
2023-10-26T19:14:02.933Z,0.30
2023-10-26T19:16:32.856Z,0.20
2023-10-26T19:19:03.875Z,0.30
2023-10-26T19:21:33.428Z,0.30
2023-10-26T19:24:02.887Z,0.30
2023-10-26T19:26:32.379Z,0.27
2023-10-26T19:29:01.909Z,0.20
2023-10-26T19:31:31.460Z,0.30
2023-10-26T19:34:01.099Z,0.20
2023-10-26T19:36:31.962Z,0.20
2023-10-26T19:39:01.454Z,0.20
2023-10-26T19:41:30.889Z,0.30
2023-10-26T19:44:01.078Z,0.30
2023-10-26T19:46:30.944Z,0.30
2023-10-26T19:49:00.504Z,0.20
2023-10-26T19:51:30.038Z,0.30
2023-10-26T19:54:00.892Z,0.30
2023-10-26T19:56:30.392Z,0.30
2023-10-26T19:59:00.044Z,0.30
2023-10-26T20:01:29.693Z,0.20
2023-10-26T20:03:59.430Z,0.23
2023-10-26T20:06:29.136Z,0.30
2023-10-26T20:08:58.669Z,0.30
2023-10-26T20:11:29.514Z,0.20
2023-10-26T20:13:59.001Z,0.20
2023-10-26T20:16:28.596Z,0.20
2023-10-26T20:19:13.057Z,0.20
2023-10-26T20:21:42.606Z,0.30
2023-10-26T20:24:12.963Z,0.20
2023-10-26T20:26:44.004Z,0.30
2023-10-26T20:29:14.846Z,0.20
2023-10-26T20:31:44.659Z,0.30
2023-10-26T20:34:18.203Z,0.20
2023-10-26T20:36:47.806Z,0.30
2023-10-26T20:39:17.446Z,0.30
2023-10-26T20:41:48.321Z,0.23
2023-10-26T20:44:18.037Z,0.30
2023-10-26T20:46:47.645Z,0.30
2023-10-26T20:49:17.236Z,0.30
2023-10-26T20:51:46.747Z,0.30
2023-10-26T20:54:16.267Z,0.20
2023-10-26T20:56:45.715Z,0.20
2023-10-26T20:59:16.515Z,0.30
2023-10-26T21:01:45.991Z,0.20
2023-10-26T21:04:15.773Z,0.30
2023-10-26T21:06:47.585Z,0.30
2023-10-26T21:09:17.912Z,0.30
2023-10-26T21:11:47.367Z,0.30
2023-10-26T21:14:18.220Z,0.30
2023-10-26T21:16:47.719Z,0.30
2023-10-26T21:19:17.305Z,0.30
2023-10-26T21:21:46.954Z,0.20
2023-10-26T21:24:16.453Z,0.30
2023-10-26T21:26:45.959Z,0.30
2023-10-26T21:29:15.474Z,0.30
2023-10-26T21:31:46.458Z,0.30
2023-10-26T21:34:16.056Z,0.30
2023-10-26T21:36:45.621Z,0.30
2023-10-26T21:39:15.689Z,0.30
2023-10-26T21:41:45.247Z,0.30
2023-10-26T21:44:14.786Z,0.30
2023-10-26T21:46:45.727Z,0.30
2023-10-26T21:49:15.356Z,0.30
2023-10-26T21:51:44.882Z,0.30
2023-10-26T21:54:14.359Z,0.33
2023-10-26T21:56:43.807Z,0.30
2023-10-26T21:59:13.235Z,0.30
2023-10-26T22:01:42.790Z,0.40
2023-10-26T22:06:47.276Z,0.40
2023-10-26T22:09:18.061Z,0.40
2023-10-26T22:11:47.724Z,0.47
2023-10-26T22:14:17.164Z,0.40
2023-10-26T22:16:46.763Z,0.40
2023-10-26T22:19:17.684Z,0.40
2023-10-26T22:21:47.162Z,0.40
2023-10-26T22:24:16.637Z,0.40
2023-10-26T22:26:46.068Z,0.40
2023-10-26T22:29:27.297Z,0.40
2023-10-26T22:31:59.953Z,0.40
2023-10-26T22:34:31.288Z,0.40
2023-10-26T22:37:01.228Z,0.40
2023-10-26T22:39:30.749Z,0.40
2023-10-26T22:42:00.242Z,0.40
2023-10-26T22:44:29.735Z,0.30
2023-10-26T22:46:59.211Z,0.33
2023-10-26T22:49:28.731Z,0.30
2023-10-26T22:51:59.698Z,0.30
2023-10-26T22:54:29.428Z,0.40
2023-10-26T22:56:58.963Z,0.30
2023-10-26T22:59:28.430Z,0.30
2023-10-26T23:01:57.924Z,0.30
2023-10-26T23:04:28.121Z,0.30
2023-10-26T23:06:59.084Z,0.30
2023-10-26T23:09:28.535Z,0.30
2023-10-26T23:11:57.984Z,0.30
2023-10-26T23:14:27.947Z,0.30
2023-10-26T23:16:57.457Z,0.30
2023-10-26T23:19:27.243Z,0.30
2023-10-26T23:21:56.831Z,0.30
2023-10-26T23:24:28.430Z,0.30
2023-10-26T23:26:57.943Z,0.30
2023-10-26T23:29:29.025Z,0.30
2023-10-26T23:31:58.528Z,0.33
2023-10-26T23:34:28.107Z,0.30
2023-10-26T23:36:57.878Z,0.30
2023-10-26T23:39:28.732Z,0.30
2023-10-26T23:41:58.180Z,0.30
2023-10-26T23:44:27.655Z,0.30
2023-10-26T23:46:57.093Z,0.30
2023-10-26T23:49:26.615Z,0.30
2023-10-26T23:51:56.110Z,0.30
2023-10-26T23:54:27.287Z,0.30
2023-10-26T23:56:58.130Z,0.27
2023-10-26T23:59:27.619Z,0.30
